Time;durP1;ratioP1;P1;durP2;ratioP2;P2;SDS_P1;SDS_P2;PMS_P1;PMS_P2;Temp;Humidity;BMP_temperature;BMP_pressure;BME280_temperature;BME280_humidity;BME280_pressure;Samples;Min_cycle;Max_cycle;Signal;HPM_P1;HPM_P2
2023/03/11 00:00:17;;;;;;;;;;;;;;;;;;5074882;28;7114;-67
2023/03/11 00:03:02;;;;;;;;;;;;;;;;;;5074858;28;7090;-67
2023/03/11 00:05:41;;;;;;;;;;;;;;;;;;5074965;28;7156;-67
2023/03/11 00:08:08;;;;;;;;;;;;;;;;;;5074708;28;7162;-67
2023/03/11 00:10:36;;;;;;;;;;;;;;;;;;5074902;28;7035;-67
2023/03/11 00:13:04;;;;;;;;;;;;;;;;;;5057410;28;8435;-67
2023/03/11 00:15:30;;;;;;;;;;;;;;;;;;5074750;28;7197;-67
2023/03/11 00:17:57;;;;;;;;;;;;;;;;;;5074655;28;7049;-67
2023/03/11 00:20:28;;;;;;;;;;;;;;;;;;5074294;28;7218;-67
2023/03/11 00:22:54;;;;;;;;;;;;;;;;;;5074651;28;7365;-67
2023/03/11 00:28:21;;;;;;;;;;;;;;;;;;5075072;28;7092;-67
2023/03/11 00:30:46;;;;;;;;;;;;;;;;;;5074532;28;7080;-67
2023/03/11 00:33:26;;;;;;;;;;;;;;;;;;5074603;28;7051;-67
2023/03/11 00:35:51;;;;;;;;;;;;;;;;;;5079381;28;7398;-67
2023/03/11 00:38:17;;;;;;;;;;;;;;;;;;5079695;28;7173;-67
2023/03/11 00:40:44;;;;;;;;;;;;;;;;;;5060543;28;8452;-67
2023/03/11 00:43:16;;;;;;;;;;;;;;;;;;5070716;28;7163;-67
2023/03/11 00:45:42;;;;;;;;;;;;;;;;;;5058594;28;7242;-68
2023/03/11 00:48:44;;;;;;;;;;;;;;;;;;5058263;28;7372;-67
2023/03/11 00:51:14;;;;;;;;;;;;;;;;;;5058098;28;7292;-67
2023/03/11 00:53:40;;;;;;;;;;;;;;;;;;5058481;28;7042;-67
2023/03/11 01:02:11;;;;;;;;;;;;;;;;;;5058096;28;6912;-67
2023/03/11 01:04:36;;;;;;;;;;;;;;;;;;5058183;28;7048;-67
2023/03/11 01:07:02;;;;;;;;;;;;;;;;;;5054332;28;7386;-67
2023/03/11 01:12:31;;;;;;;;;;;;;;;;;;5057851;28;7007;-67
2023/03/11 01:14:57;;;;;;;;;;;;;;;;;;5057965;28;7193;-67
2023/03/11 01:17:23;;;;;;;;;;;;;;;;;;5058073;28;7185;-68
2023/03/11 01:19:48;;;;;;;;;;;;;;;;;;5057959;28;7228;-67
2023/03/11 01:25:19;;;;;;;;;;;;;;;;;;5057634;28;6688;-67
2023/03/11 01:27:45;;;;;;;;;;;;;;;;;;5057788;28;7440;-67
2023/03/11 01:30:23;;;;;;;;;;;;;;;;;;5057779;28;7514;-67
2023/03/11 01:32:51;;;;;;;;;;;;;;;;;;5057745;28;7404;-67
2023/03/11 01:35:18;;;;;;;;;;;;;;;;;;5057560;28;7638;-67
2023/03/11 01:40:49;;;;;;;;;;;;;;;;;;5057229;28;6972;-67
2023/03/11 01:43:33;;;;;;;;;;;;;;;;;;5057159;28;7183;-67
2023/03/11 01:49:03;;;;;;;;;;;;;;;;;;5057254;28;6685;-67
2023/03/11 01:54:40;;;;;;;;;;;;;;;;;;5057079;28;6744;-67
2023/03/11 01:57:17;;;;;;;;;;;;;;;;;;5057027;28;6928;-67
2023/03/11 01:59:48;;;;;;;;;;;;;;;;;;5057023;28;7466;-67
2023/03/11 02:05:17;;;;;;;;;;;;;;;;;;5056993;28;6972;-68
2023/03/11 02:07:43;;;;;;;;;;;;;;;;;;5055911;28;7173;-67
2023/03/11 02:13:02;;;;;;;;;;;;;;;;;;5057260;28;7039;-66
2023/03/11 02:15:29;;;;;;;;;;;;;;;;;;5056970;28;6991;-66
2023/03/11 02:17:55;;;;;;;;;;;;;;;;;;5057701;28;6799;-66
2023/03/11 02:20:23;;;;;;;;;;;;;;;;;;5039002;28;8421;-66
2023/03/11 02:25:52;;;;;;;;;;;;;;;;;;5056572;28;7429;-66
2023/03/11 02:34:49;;;;;;;;;;;;;;;;;;5056707;28;6737;-66
2023/03/11 02:37:16;;;;;;;;;;;;;;;;;;5056467;28;6955;-66
2023/03/11 02:39:52;;;;;;;;;;;;;;;;;;5056398;28;7094;-66
2023/03/11 02:42:27;;;;;;;;;;;;;;;;;;5056284;28;7185;-66
2023/03/11 02:44:59;;;;;;;;;;;;;;;;;;5056265;28;7335;-66
2023/03/11 02:47:25;;;;;;;;;;;;;;;;;;5056893;28;6961;-66
2023/03/11 02:49:53;;;;;;;;;;;;;;;;;;5038348;28;8398;-66
2023/03/11 02:52:18;;;;;;;;;;;;;;;;;;5056156;28;7215;-66
2023/03/11 02:54:46;;;;;;;;;;;;;;;;;;5056310;28;7027;-65
2023/03/11 02:57:12;;;;;;;;;;;;;;;;;;5065473;23;7159;-69
2023/03/11 02:59:37;;;;;;;;;;;;;;;;;;5015031;28;7037;-69
2023/03/11 03:02:03;;;;;;;;;;;;;;;;;;5016072;28;7144;-69
2023/03/11 03:07:49;;;;;;;;;;;;;;;;;;5016043;28;6816;-69
2023/03/11 03:10:16;;;;;;;;;;;;;;;;;;5015977;28;7189;-70
2023/03/11 03:12:41;;;;;;;;;;;;;;;;;;5016135;28;7152;-70
2023/03/11 03:15:08;;;;;;;;;;;;;;;;;;5016160;28;7632;-70
2023/03/11 03:17:34;;;;;;;;;;;;;;;;;;5015787;28;7208;-70
2023/03/11 03:20:10;;;;;;;;;;;;;;;;;;5015983;28;7220;-70
2023/03/11 03:22:36;;;;;;;;;;;;;;;;;;5015871;28;7192;-70
2023/03/11 03:25:02;;;;;;;;;;;;;;;;;;5015908;28;7020;-70
2023/03/11 03:27:28;;;;;;;;;;;;;;;;;;5015817;28;7195;-70
2023/03/11 03:32:56;;;;;;;;;;;;;;;;;;5015416;28;6889;-70
2023/03/11 03:35:22;;;;;;;;;;;;;;;;;;5015774;28;7533;-70
2023/03/11 03:37:47;;;;;;;;;;;;;;;;;;5016875;28;7168;-70
2023/03/11 03:40:13;;;;;;;;;;;;;;;;;;5015475;28;7082;-70
2023/03/11 03:42:38;;;;;;;;;;;;;;;;;;5015536;28;7067;-70
2023/03/11 03:48:14;;;;;;;;;;;;;;;;;;5015285;28;6893;-69
2023/03/11 03:50:39;;;;;;;;;;;;;;;;;;5015307;28;6996;-69
2023/03/11 03:56:11;;;;;;;;;;;;;;;;;;5015294;28;6912;-69
2023/03/11 03:58:37;;;;;;;;;;;;;;;;;;5015466;28;7010;-70
2023/03/11 04:01:04;;;;;;;;;;;;;;;;;;5015192;28;7138;-70
2023/03/11 04:06:33;;;;;;;;;;;;;;;;;;5015147;28;6685;-69
2023/03/11 04:12:18;;;;;;;;;;;;;;;;;;5014796;28;6685;-69
2023/03/11 04:14:44;;;;;;;;;;;;;;;;;;5015704;28;7142;-69
2023/03/11 04:17:11;;;;;;;;;;;;;;;;;;5015171;28;7078;-69
2023/03/11 04:19:43;;;;;;;;;;;;;;;;;;5015861;28;7210;-69
2023/03/11 04:22:09;;;;;;;;;;;;;;;;;;5014989;28;6946;-69
2023/03/11 04:24:34;;;;;;;;;;;;;;;;;;5015041;28;7371;-69
2023/03/11 04:30:04;;;;;;;;;;;;;;;;;;5014959;28;6852;-69
2023/03/11 04:32:29;;;;;;;;;;;;;;;;;;5015828;28;7138;-69
2023/03/11 04:34:56;;;;;;;;;;;;;;;;;;5014618;28;7790;-69
2023/03/11 04:37:21;;;;;;;;;;;;;;;;;;5014921;28;7194;-69
2023/03/11 04:39:49;;;;;;;;;;;;;;;;;;5014830;28;7201;-69
2023/03/11 04:42:46;;;;;;;;;;;;;;;;;;5014625;28;6998;-69
2023/03/11 04:45:12;;;;;;;;;;;;;;;;;;5014581;28;7301;-69
2023/03/11 04:47:37;;;;;;;;;;;;;;;;;;5015639;28;7139;-69
2023/03/11 04:50:03;;;;;;;;;;;;;;;;;;5015677;28;6913;-69
2023/03/11 04:52:29;;;;;;;;;;;;;;;;;;5014727;28;7351;-69
2023/03/11 04:57:57;;;;;;;;;;;;;;;;;;5013613;28;6974;-69
2023/03/11 05:00:50;;;;;;;;;;;;;;;;;;5014446;28;7023;-69
2023/03/11 05:03:48;;;;;;;;;;;;;;;;;;5014599;28;7148;-68
2023/03/11 05:06:14;;;;;;;;;;;;;;;;;;5014702;28;7194;-68
2023/03/11 05:08:40;;;;;;;;;;;;;;;;;;5014573;28;6954;-68
2023/03/11 05:11:05;;;;;;;;;;;;;;;;;;5015765;28;7086;-68
2023/03/11 05:13:31;;;;;;;;;;;;;;;;;;5014360;28;7224;-68
2023/03/11 05:16:18;;;;;;;;;;;;;;;;;;5014661;28;6820;-68
2023/03/11 05:21:46;;;;;;;;;;;;;;;;;;5018229;28;6916;-68
2023/03/11 05:24:12;;;;;;;;;;;;;;;;;;5018132;28;7009;-68
2023/03/11 05:26:40;;;;;;;;;;;;;;;;;;5018701;28;7154;-68
2023/03/11 05:29:06;;;;;;;;;;;;;;;;;;5018041;28;7135;-68
2023/03/11 05:34:27;;;;;;;;;;;;;;;;;;5018048;28;6984;-68
2023/03/11 05:36:58;;;;;;;;;;;;;;;;;;5017506;28;7068;-68
2023/03/11 05:39:24;;;;;;;;;;;;;;;;;;5017856;28;7326;-68
2023/03/11 05:41:49;;;;;;;;;;;;;;;;;;5016354;28;8506;-68
2023/03/11 05:44:15;;;;;;;;;;;;;;;;;;5017785;28;7154;-68
2023/03/11 05:46:46;;;;;;;;;;;;;;;;;;5017853;28;7070;-68
2023/03/11 05:49:12;;;;;;;;;;;;;;;;;;5033332;28;7379;-68
2023/03/11 05:51:37;;;;;;;;;;;;;;;;;;5017109;28;6942;-68
2023/03/11 05:54:03;;;;;;;;;;;;;;;;;;5016989;28;7384;-68
2023/03/11 05:56:28;;;;;;;;;;;;;;;;;;5016056;28;8408;-68
2023/03/11 05:58:55;;;;;;;;;;;;;;;;;;5017523;28;6953;-68
2023/03/11 06:01:58;;;;;;;;;;;;;;;;;;5017362;28;7127;-68
2023/03/11 06:04:23;;;;;;;;;;;;;;;;;;5016921;28;7282;-68
2023/03/11 06:07:10;;;;;;;;;;;;;;;;;;5017330;28;6934;-68
2023/03/11 06:09:36;;;;;;;;;;;;;;;;;;5017659;28;7154;-69
2023/03/11 06:12:04;;;;;;;;;;;;;;;;;;5017283;28;6919;-68
2023/03/11 06:14:31;;;;;;;;;;;;;;;;;;5017665;28;6967;-68
2023/03/11 06:17:11;;;;;;;;;;;;;;;;;;5016825;28;7406;-68
2023/03/11 06:19:37;;;;;;;;;;;;;;;;;;5016702;28;7178;-68
2023/03/11 06:22:02;;;;;;;;;;;;;;;;;;5016902;28;6960;-68
2023/03/11 06:24:28;;;;;;;;;;;;;;;;;;5016777;28;7071;-68
2023/03/11 06:27:23;;;;;;;;;;;;;;;;;;5015734;28;7093;-68
2023/03/11 06:29:53;;;;;;;;;;;;;;;;;;5009248;28;7239;-69
2023/03/11 06:32:19;;;;;;;;;;;;;;;;;;5008805;28;7054;-68
2023/03/11 06:35:04;;;;;;;;;;;;;;;;;;5016736;28;7349;-68
2023/03/11 06:37:30;;;;;;;;;;;;;;;;;;5016686;28;7144;-68
2023/03/11 06:39:55;;;;;;;;;;;;;;;;;;5016475;28;7151;-68
2023/03/11 06:42:22;;;;;;;;;;;;;;;;;;5016690;28;7341;-68
2023/03/11 06:44:48;;;;;;;;;;;;;;;;;;4999360;28;7234;-68
2023/03/11 06:47:41;;;;;;;;;;;;;;;;;;4997084;28;7123;-69
2023/03/11 06:50:08;;;;;;;;;;;;;;;;;;4997288;28;7010;-69
2023/03/11 06:52:34;;;;;;;;;;;;;;;;;;4997816;28;6904;-69
2023/03/11 06:55:23;;;;;;;;;;;;;;;;;;4996840;28;7032;-69
2023/03/11 07:00:51;;;;;;;;;;;;;;;;;;4996561;28;6729;-71
2023/03/11 07:06:22;;;;;;;;;;;;;;;;;;4996536;28;6912;-69
2023/03/11 07:11:51;;;;;;;;;;;;;;;;;;4996391;28;6964;-69
2023/03/11 07:17:19;;;;;;;;;;;;;;;;;;4996417;28;6915;-69
2023/03/11 07:20:05;;;;;;;;;;;;;;;;;;4996346;28;6897;-70
2023/03/11 07:22:31;;;;;;;;;;;;;;;;;;4996174;28;7358;-70
2023/03/11 07:25:20;;;;;;;;;;;;;;;;;;5003609;28;7292;-70
2023/03/11 07:27:45;;;;;;;;;;;;;;;;;;5015921;28;7582;-70
2023/03/11 07:30:11;;;;;;;;;;;;;;;;;;5016660;28;7346;-69
2023/03/11 07:35:39;;;;;;;;;;;;;;;;;;4995956;28;6756;-70
2023/03/11 07:44:01;;;;;;;;;;;;;;;;;;5015576;28;6957;-70
2023/03/11 07:52:32;;;;;;;;;;;;;;;;;;5015469;28;6688;-70
2023/03/11 07:58:00;;;;;;;;;;;;;;;;;;5014731;28;6945;-70
2023/03/11 08:01:03;;;;;;;;;;;;;;;;;;5015245;28;7126;-70
2023/03/11 08:03:28;;;;;;;;;;;;;;;;;;5015206;28;7027;-70
2023/03/11 08:05:54;;;;;;;;;;;;;;;;;;5015291;28;7253;-70
2023/03/11 08:08:27;;;;;;;;;;;;;;;;;;5015205;28;7196;-70
2023/03/11 08:10:53;;;;;;;;;;;;;;;;;;5015213;28;6989;-70
2023/03/11 08:13:42;;;;;;;;;;;;;;;;;;5015136;28;6932;-70
2023/03/11 08:16:09;;;;;;;;;;;;;;;;;;5014733;28;6944;-69
2023/03/11 08:18:51;;;;;;;;;;;;;;;;;;5015058;28;6996;-70
2023/03/11 08:21:19;;;;;;;;;;;;;;;;;;5014982;28;7497;-70
2023/03/11 08:23:45;;;;;;;;;;;;;;;;;;5015371;28;7130;-70
2023/03/11 08:29:13;;;;;;;;;;;;;;;;;;5014786;28;6681;-69
2023/03/11 08:31:44;;;;;;;;;;;;;;;;;;5014551;28;6929;-69
2023/03/11 08:34:10;;;;;;;;;;;;;;;;;;5012399;28;6950;-69
2023/03/11 08:36:35;;;;;;;;;;;;;;;;;;4995430;28;7157;-69
2023/03/11 08:39:14;;;;;;;;;;;;;;;;;;4995324;28;6911;-69
2023/03/11 08:41:39;;;;;;;;;;;;;;;;;;4995157;28;7456;-69
2023/03/11 08:44:04;;;;;;;;;;;;;;;;;;4995130;28;6785;-69
2023/03/11 08:49:34;;;;;;;;;;;;;;;;;;4995234;28;6682;-69
2023/03/11 08:52:00;;;;;;;;;;;;;;;;;;4995165;28;7196;-69
2023/03/11 08:57:29;;;;;;;;;;;;;;;;;;5018237;28;7434;-69
2023/03/11 09:02:51;;;;;;;;;;;;;;;;;;5019166;28;7049;-69
2023/03/11 09:05:16;;;;;;;;;;;;;;;;;;5018515;28;7555;-70
2023/03/11 09:07:58;;;;;;;;;;;;;;;;;;5018557;28;7209;-70
2023/03/11 09:10:23;;;;;;;;;;;;;;;;;;5018530;28;7169;-70
2023/03/11 09:12:50;;;;;;;;;;;;;;;;;;5018345;28;7231;-70
2023/03/11 09:15:16;;;;;;;;;;;;;;;;;;5018369;28;6964;-70
2023/03/11 09:17:41;;;;;;;;;;;;;;;;;;5018324;28;7022;-70
2023/03/11 09:20:10;;;;;;;;;;;;;;;;;;5018243;28;6920;-70
2023/03/11 09:22:35;;;;;;;;;;;;;;;;;;5018204;28;6934;-70
2023/03/11 09:25:01;;;;;;;;;;;;;;;;;;5018161;28;7097;-70
2023/03/11 09:30:30;;;;;;;;;;;;;;;;;;5017884;28;6697;-70
2023/03/11 09:32:56;;;;;;;;;;;;;;;;;;5018086;28;7181;-70
2023/03/11 09:35:23;;;;;;;;;;;;;;;;;;5018006;28;7125;-70
2023/03/11 09:40:56;;;;;;;;;;;;;;;;;;5017793;28;6957;-70
2023/03/11 09:43:35;;;;;;;;;;;;;;;;;;5017776;28;7593;-70
2023/03/11 09:49:31;;;;;;;;;;;;;;;;;;5018162;28;6785;-70
2023/03/11 09:52:13;;;;;;;;;;;;;;;;;;5018239;28;7356;-70
2023/03/11 09:54:42;;;;;;;;;;;;;;;;;;5012302;28;7113;-70
2023/03/11 10:03:32;;;;;;;;;;;;;;;;;;5017272;28;6926;-71
2023/03/11 10:06:24;;;;;;;;;;;;;;;;;;5016851;28;7396;-70
2023/03/11 10:08:56;;;;;;;;;;;;;;;;;;5017903;28;7028;-70
2023/03/11 10:11:24;;;;;;;;;;;;;;;;;;5017191;28;7179;-70
2023/03/11 10:13:59;;;;;;;;;;;;;;;;;;5017211;28;7167;-70
2023/03/11 10:16:34;;;;;;;;;;;;;;;;;;5017212;28;7395;-70
2023/03/11 10:19:03;;;;;;;;;;;;;;;;;;5017163;28;7293;-70
2023/03/11 10:24:41;;;;;;;;;;;;;;;;;;5016985;28;6749;-69
2023/03/11 10:27:13;;;;;;;;;;;;;;;;;;5017118;28;7214;-69
2023/03/11 10:29:52;;;;;;;;;;;;;;;;;;5017567;28;7235;-70
2023/03/11 10:35:40;;;;;;;;;;;;;;;;;;5017313;28;6805;-70
2023/03/11 10:38:11;;;;;;;;;;;;;;;;;;5011995;28;6947;-70
2023/03/11 10:40:41;;;;;;;;;;;;;;;;;;5015048;28;7200;-69
2023/03/11 10:43:13;;;;;;;;;;;;;;;;;;5015000;28;8084;-70
2023/03/11 10:46:13;;;;;;;;;;;;;;;;;;5017309;28;7313;-70
2023/03/11 10:48:39;;;;;;;;;;;;;;;;;;5016723;28;7367;-69
2023/03/11 10:51:25;;;;;;;;;;;;;;;;;;5016611;28;6987;-69
2023/03/11 10:53:52;;;;;;;;;;;;;;;;;;5017056;28;7118;-69
2023/03/11 10:56:54;;;;;;;;;;;;;;;;;;5016492;28;7097;-69
2023/03/11 11:02:24;;;;;;;;;;;;;;;;;;4996416;28;6899;-70
2023/03/11 11:08:29;;;;;;;;;;;;;;;;;;4898915;29;6788;-70
2023/03/11 11:10:57;;;;;;;;;;;;;;;;;;4898810;29;7169;-70
2023/03/11 11:13:37;;;;;;;;;;;;;;;;;;4898845;29;6827;-70
2023/03/11 11:16:39;;;;;;;;;;;;;;;;;;4898517;29;6956;-70
2023/03/11 11:19:05;;;;;;;;;;;;;;;;;;4898508;29;7145;-70
2023/03/11 11:21:38;;;;;;;;;;;;;;;;;;4899263;29;7113;-70
2023/03/11 11:30:19;;;;;;;;;;;;;;;;;;4898582;29;6945;-70
2023/03/11 11:32:45;;;;;;;;;;;;;;;;;;5051626;22;7282;-65
2023/03/11 11:35:15;;;;;;;;;;;;;;;;;;5034549;28;8388;-65
2023/03/11 11:37:42;;;;;;;;;;;;;;;;;;5035563;28;7124;-66
2023/03/11 11:40:28;;;;;;;;;;;;;;;;;;5035300;28;6964;-66
2023/03/11 11:43:13;;;;;;;;;;;;;;;;;;5045086;28;7163;-66
2023/03/11 11:45:39;;;;;;;;;;;;;;;;;;5054413;28;7315;-67
2023/03/11 11:48:21;;;;;;;;;;;;;;;;;;5055238;28;7175;-67
2023/03/11 11:50:59;;;;;;;;;;;;;;;;;;5055303;28;7072;-67
2023/03/11 11:53:33;;;;;;;;;;;;;;;;;;5055176;28;6932;-66
2023/03/11 11:56:00;;;;;;;;;;;;;;;;;;5036688;28;7104;-66
2023/03/11 12:07:29;;;;;;;;;;;;;;;;;;5036011;28;7020;-65
2023/03/11 12:10:13;;;;;;;;;;;;;;;;;;5035070;28;7105;-66
2023/03/11 12:18:54;;;;;;;;;;;;;;;;;;5035354;28;6968;-65
2023/03/11 12:21:38;;;;;;;;;;;;;;;;;;5034689;28;7372;-65
2023/03/11 12:24:12;;;;;;;;;;;;;;;;;;5034792;28;7136;-65
2023/03/11 12:29:45;;;;;;;;;;;;;;;;;;5033947;28;7112;-65
2023/03/11 12:35:31;;;;;;;;;;;;;;;;;;5034584;28;6915;-65
2023/03/11 12:38:00;;;;;;;;;;;;;;;;;;5034827;28;7189;-65
2023/03/11 12:40:58;;;;;;;;;;;;;;;;;;5046481;28;7095;-65
2023/03/11 12:43:24;;;;;;;;;;;;;;;;;;5032512;28;7186;-65
2023/03/11 12:45:50;;;;;;;;;;;;;;;;;;5032358;28;7170;-65
2023/03/11 12:48:35;;;;;;;;;;;;;;;;;;5032650;28;7451;-65
2023/03/11 12:51:01;;;;;;;;;;;;;;;;;;5032411;28;7140;-65
2023/03/11 12:56:44;;;;;;;;;;;;;;;;;;5032596;28;6999;-65
2023/03/11 13:02:36;;;;;;;;;;;;;;;;;;5028936;28;6788;-65
2023/03/11 13:05:24;;;;;;;;;;;;;;;;;;5032287;28;8011;-65
2023/03/11 13:07:56;;;;;;;;;;;;;;;;;;5032562;28;7253;-65
2023/03/11 13:10:27;;;;;;;;;;;;;;;;;;5032450;28;7409;-65
2023/03/11 13:12:52;;;;;;;;;;;;;;;;;;5015737;28;8423;-65
2023/03/11 13:15:21;;;;;;;;;;;;;;;;;;5032287;28;7170;-65
2023/03/11 13:17:55;;;;;;;;;;;;;;;;;;5165617;22;6955;-65
2023/03/11 13:20:42;;;;;;;;;;;;;;;;;;5037107;28;8459;-65
2023/03/11 13:25:45;;;;;;;;;;;;;;;;;;4993811;28;6966;-65
2023/03/11 13:28:32;;;;;;;;;;;;;;;;;;4994873;28;7355;-65
2023/03/11 13:31:15;;;;;;;;;;;;;;;;;;4995517;28;7251;-65
2023/03/11 13:36:51;;;;;;;;;;;;;;;;;;5014273;28;6926;-66
2023/03/11 13:39:35;;;;;;;;;;;;;;;;;;5014683;28;7214;-65
2023/03/11 13:45:24;;;;;;;;;;;;;;;;;;5017728;28;6687;-65
2023/03/11 13:47:52;;;;;;;;;;;;;;;;;;5017822;28;7249;-65
2023/03/11 13:50:31;;;;;;;;;;;;;;;;;;5018090;28;7051;-66
2023/03/11 13:53:00;;;;;;;;;;;;;;;;;;5018166;28;7120;-66
2023/03/11 13:55:42;;;;;;;;;;;;;;;;;;5018469;28;7201;-65
2023/03/11 13:58:16;;;;;;;;;;;;;;;;;;5017606;28;7347;-66
2023/03/11 14:03:46;;;;;;;;;;;;;;;;;;5005294;28;6962;-66
2023/03/11 14:06:32;;;;;;;;;;;;;;;;;;5017582;28;7158;-64
2023/03/11 14:08:57;;;;;;;;;;;;;;;;;;5016584;28;7518;-65
2023/03/11 14:11:30;;;;;;;;;;;;;;;;;;5017123;28;7261;-65
2023/03/11 14:13:56;;;;;;;;;;;;;;;;;;5017300;28;7183;-65
2023/03/11 14:19:43;;;;;;;;;;;;;;;;;;4997344;28;6971;-65
2023/03/11 14:22:09;;;;;;;;;;;;;;;;;;4997153;28;9016;-65
2023/03/11 14:24:37;;;;;;;;;;;;;;;;;;4989791;28;7062;-65
2023/03/11 14:27:06;;;;;;;;;;;;;;;;;;4996492;28;7158;-65
2023/03/11 14:29:34;;;;;;;;;;;;;;;;;;4996165;28;6971;-65
2023/03/11 14:32:34;;;;;;;;;;;;;;;;;;4996193;28;6951;-65
2023/03/11 14:35:00;;;;;;;;;;;;;;;;;;4996356;28;7185;-65
2023/03/11 14:37:28;;;;;;;;;;;;;;;;;;4996354;28;7092;-65
2023/03/11 14:43:05;;;;;;;;;;;;;;;;;;4995986;28;6923;-65
2023/03/11 14:45:32;;;;;;;;;;;;;;;;;;4995822;28;7137;-65
2023/03/11 14:51:04;;;;;;;;;;;;;;;;;;4995817;28;6916;-65
2023/03/11 14:53:40;;;;;;;;;;;;;;;;;;4995463;28;6969;-65
2023/03/11 14:56:12;;;;;;;;;;;;;;;;;;5011878;28;6953;-65
2023/03/11 14:59:03;;;;;;;;;;;;;;;;;;5015235;28;7111;-65
2023/03/11 15:01:32;;;;;;;;;;;;;;;;;;5014609;28;7081;-65
2023/03/11 15:04:07;;;;;;;;;;;;;;;;;;5015362;28;7219;-65
2023/03/11 15:06:37;;;;;;;;;;;;;;;;;;4997872;28;7011;-65
2023/03/11 15:09:06;;;;;;;;;;;;;;;;;;5015703;28;7091;-65
2023/03/11 15:14:36;;;;;;;;;;;;;;;;;;5015150;28;6739;-65
2023/03/11 15:17:32;;;;;;;;;;;;;;;;;;5015196;28;7600;-65
2023/03/11 15:19:58;;;;;;;;;;;;;;;;;;5015207;28;7064;-64
2023/03/11 15:22:26;;;;;;;;;;;;;;;;;;5015039;28;7088;-65
2023/03/11 15:24:54;;;;;;;;;;;;;;;;;;4966695;28;1192860;-64
2023/03/11 15:27:31;;;;;;;;;;;;;;;;;;5001591;28;7431;-65
2023/03/11 15:29:58;;;;;;;;;;;;;;;;;;5016175;28;7280;-65
2023/03/11 15:35:28;;;;;;;;;;;;;;;;;;5015623;28;6973;-65
2023/03/11 15:40:59;;;;;;;;;;;;;;;;;;5015368;28;6926;-65
2023/03/11 15:46:28;;;;;;;;;;;;;;;;;;5015368;28;6684;-65
2023/03/11 15:48:54;;;;;;;;;;;;;;;;;;5015294;28;7037;-65
2023/03/11 15:51:19;;;;;;;;;;;;;;;;;;5015506;28;7134;-64
2023/03/11 15:53:45;;;;;;;;;;;;;;;;;;5015053;28;6970;-65
2023/03/11 15:56:16;;;;;;;;;;;;;;;;;;5011071;28;7260;-65
2023/03/11 16:01:46;;;;;;;;;;;;;;;;;;5014883;28;6974;-65
2023/03/11 16:04:13;;;;;;;;;;;;;;;;;;5014620;28;7201;-65
2023/03/11 16:06:39;;;;;;;;;;;;;;;;;;5015214;28;7243;-65
2023/03/11 16:09:38;;;;;;;;;;;;;;;;;;5015268;28;7001;-65
2023/03/11 16:12:15;;;;;;;;;;;;;;;;;;5015810;28;7142;-65
2023/03/11 16:14:41;;;;;;;;;;;;;;;;;;5015185;28;7220;-65
2023/03/11 16:20:16;;;;;;;;;;;;;;;;;;5014986;28;7380;-65
2023/03/11 16:32:10;;;;;;;;;;;;;;;;;;5014962;28;6676;-65
2023/03/11 16:37:41;;;;;;;;;;;;;;;;;;5014724;28;6682;-65
2023/03/11 16:40:27;;;;;;;;;;;;;;;;;;5015159;28;6837;-65
2023/03/11 16:43:14;;;;;;;;;;;;;;;;;;5014714;28;7172;-65
2023/03/11 16:45:40;;;;;;;;;;;;;;;;;;5014844;28;6830;-65
2023/03/11 16:48:05;;;;;;;;;;;;;;;;;;5014857;28;7211;-65
2023/03/11 16:50:38;;;;;;;;;;;;;;;;;;5014889;28;7143;-65
2023/03/11 16:53:03;;;;;;;;;;;;;;;;;;5014655;28;7103;-64
2023/03/11 16:55:51;;;;;;;;;;;;;;;;;;5015143;28;6908;-64
2023/03/11 16:58:17;;;;;;;;;;;;;;;;;;5015225;28;7161;-65
2023/03/11 17:00:42;;;;;;;;;;;;;;;;;;5014428;28;8423;-66
2023/03/11 17:03:22;;;;;;;;;;;;;;;;;;5015201;28;6911;-65
2023/03/11 17:05:48;;;;;;;;;;;;;;;;;;5014789;28;7238;-65
2023/03/11 17:08:15;;;;;;;;;;;;;;;;;;5014484;28;7331;-65
2023/03/11 17:13:44;;;;;;;;;;;;;;;;;;5014382;28;7046;-65
2023/03/11 17:16:36;;;;;;;;;;;;;;;;;;5015869;28;7229;-65
2023/03/11 17:22:27;;;;;;;;;;;;;;;;;;5017906;28;7013;-65
2023/03/11 17:27:56;;;;;;;;;;;;;;;;;;5017925;28;7030;-65
2023/03/11 17:33:21;;;;;;;;;;;;;;;;;;5047541;23;7181;-65
2023/03/11 17:35:47;;;;;;;;;;;;;;;;;;4998419;28;7395;-65
2023/03/11 17:38:12;;;;;;;;;;;;;;;;;;4998193;28;7280;-65
2023/03/11 17:40:38;;;;;;;;;;;;;;;;;;4998275;28;7143;-65
2023/03/11 17:43:22;;;;;;;;;;;;;;;;;;4996240;28;7027;-65
2023/03/11 17:45:48;;;;;;;;;;;;;;;;;;4978841;28;7410;-65
2023/03/11 17:48:13;;;;;;;;;;;;;;;;;;4978743;28;7027;-65
2023/03/11 17:53:43;;;;;;;;;;;;;;;;;;4978381;28;6674;-65
2023/03/11 17:56:27;;;;;;;;;;;;;;;;;;4978662;28;7203;-70
2023/03/11 17:58:53;;;;;;;;;;;;;;;;;;4995131;28;6942;-65
2023/03/11 18:04:47;;;;;;;;;;;;;;;;;;4997638;28;6743;-65
2023/03/11 18:07:17;;;;;;;;;;;;;;;;;;4998414;28;7322;-65
2023/03/11 18:09:44;;;;;;;;;;;;;;;;;;4997106;28;7113;-65
2023/03/11 18:12:11;;;;;;;;;;;;;;;;;;4997526;28;7139;-65
2023/03/11 18:14:37;;;;;;;;;;;;;;;;;;4997783;28;6943;-65
2023/03/11 18:17:02;;;;;;;;;;;;;;;;;;4997642;28;7044;-65
2023/03/11 18:22:20;;;;;;;;;;;;;;;;;;4997654;28;6759;-65
2023/03/11 18:24:45;;;;;;;;;;;;;;;;;;4997532;28;7119;-65
2023/03/11 18:27:11;;;;;;;;;;;;;;;;;;4996512;28;8296;-65
2023/03/11 18:32:39;;;;;;;;;;;;;;;;;;5016528;28;6703;-65
2023/03/11 18:35:05;;;;;;;;;;;;;;;;;;5016701;28;7748;-65
2023/03/11 18:37:32;;;;;;;;;;;;;;;;;;4998039;28;7118;-65
2023/03/11 18:43:00;;;;;;;;;;;;;;;;;;4996899;28;6727;-66
2023/03/11 18:45:26;;;;;;;;;;;;;;;;;;4997152;28;6946;-65
2023/03/11 18:48:05;;;;;;;;;;;;;;;;;;4997112;28;6811;-65
2023/03/11 18:50:30;;;;;;;;;;;;;;;;;;4997450;28;7394;-65
2023/03/11 18:52:56;;;;;;;;;;;;;;;;;;4996897;28;6935;-65
2023/03/11 18:58:24;;;;;;;;;;;;;;;;;;4977149;28;6972;-65
2023/03/11 19:04:04;;;;;;;;;;;;;;;;;;4977110;28;7102;-65
2023/03/11 19:06:30;;;;;;;;;;;;;;;;;;4977266;28;7196;-65
2023/03/11 19:08:59;;;;;;;;;;;;;;;;;;4977335;28;7342;-65
2023/03/11 19:14:27;;;;;;;;;;;;;;;;;;4977034;28;6746;-65
2023/03/11 19:16:53;;;;;;;;;;;;;;;;;;4977011;28;7102;-65
2023/03/11 19:22:12;;;;;;;;;;;;;;;;;;4977163;28;6754;-65
2023/03/11 19:24:37;;;;;;;;;;;;;;;;;;4977872;28;7137;-65
2023/03/11 19:27:03;;;;;;;;;;;;;;;;;;4976649;28;7039;-65
2023/03/11 19:29:28;;;;;;;;;;;;;;;;;;4977824;28;7210;-65
2023/03/11 19:31:54;;;;;;;;;;;;;;;;;;4976816;28;7195;-65
2023/03/11 19:34:20;;;;;;;;;;;;;;;;;;4976688;28;7018;-65
2023/03/11 19:36:49;;;;;;;;;;;;;;;;;;4976755;28;7188;-66
2023/03/11 19:39:46;;;;;;;;;;;;;;;;;;4976464;28;7075;-66
2023/03/11 19:42:12;;;;;;;;;;;;;;;;;;4976837;28;7207;-65
2023/03/11 19:44:57;;;;;;;;;;;;;;;;;;4976703;28;6935;-65
2023/03/11 19:47:23;;;;;;;;;;;;;;;;;;4976546;28;6811;-65
2023/03/11 19:49:48;;;;;;;;;;;;;;;;;;4976587;28;7230;-66
2023/03/11 19:52:14;;;;;;;;;;;;;;;;;;4976396;28;6929;-65
2023/03/11 19:54:41;;;;;;;;;;;;;;;;;;4976546;28;7351;-65
2023/03/11 19:57:06;;;;;;;;;;;;;;;;;;4993630;28;7180;-65
2023/03/11 19:59:32;;;;;;;;;;;;;;;;;;4995884;28;7262;-65
2023/03/11 20:04:55;;;;;;;;;;;;;;;;;;4995984;28;7180;-65
2023/03/11 20:07:28;;;;;;;;;;;;;;;;;;4995689;28;7410;-65
2023/03/11 20:09:53;;;;;;;;;;;;;;;;;;4995768;28;7120;-65
2023/03/11 20:12:19;;;;;;;;;;;;;;;;;;4995582;28;7026;-65
2023/03/11 20:14:45;;;;;;;;;;;;;;;;;;5042005;23;7542;-65
2023/03/11 20:17:13;;;;;;;;;;;;;;;;;;5015614;28;7194;-66
2023/03/11 20:19:39;;;;;;;;;;;;;;;;;;5015065;28;6952;-66
2023/03/11 20:24:58;;;;;;;;;;;;;;;;;;5015697;28;7131;-65
2023/03/11 20:27:24;;;;;;;;;;;;;;;;;;5008163;28;6786;-65
2023/03/11 20:30:18;;;;;;;;;;;;;;;;;;4995509;28;7076;-65
2023/03/11 20:32:44;;;;;;;;;;;;;;;;;;4996014;28;7328;-65
2023/03/11 20:35:10;;;;;;;;;;;;;;;;;;4995958;28;7181;-65
2023/03/11 20:37:46;;;;;;;;;;;;;;;;;;4995540;28;7152;-66
2023/03/11 20:40:14;;;;;;;;;;;;;;;;;;4995414;28;7113;-66
2023/03/11 20:42:41;;;;;;;;;;;;;;;;;;4995186;28;6984;-65
2023/03/11 20:45:09;;;;;;;;;;;;;;;;;;4995614;28;7931;-65
2023/03/11 20:48:04;;;;;;;;;;;;;;;;;;4995084;28;7220;-66
2023/03/11 20:50:30;;;;;;;;;;;;;;;;;;4996321;28;7506;-65
2023/03/11 20:52:55;;;;;;;;;;;;;;;;;;4999186;28;7236;-66
2023/03/11 20:55:21;;;;;;;;;;;;;;;;;;4998818;28;7404;-66
2023/03/11 20:57:47;;;;;;;;;;;;;;;;;;4999188;28;7085;-66
2023/03/11 21:00:13;;;;;;;;;;;;;;;;;;4999113;28;6923;-66
2023/03/11 21:02:40;;;;;;;;;;;;;;;;;;5002876;28;7171;-65
2023/03/11 21:05:07;;;;;;;;;;;;;;;;;;5018423;28;7066;-66
2023/03/11 21:13:38;;;;;;;;;;;;;;;;;;5017951;28;6925;-66
2023/03/11 21:19:08;;;;;;;;;;;;;;;;;;5018110;28;7023;-66
2023/03/11 21:21:35;;;;;;;;;;;;;;;;;;5018132;28;7038;-65
2023/03/11 21:24:01;;;;;;;;;;;;;;;;;;5018145;28;7192;-65
2023/03/11 21:29:29;;;;;;;;;;;;;;;;;;5018195;28;6682;-66
2023/03/11 21:32:15;;;;;;;;;;;;;;;;;;5018164;28;7131;-65
2023/03/11 21:34:41;;;;;;;;;;;;;;;;;;5018677;28;7668;-65
2023/03/11 21:37:06;;;;;;;;;;;;;;;;;;5018092;28;7164;-65
2023/03/11 21:39:55;;;;;;;;;;;;;;;;;;5018045;28;6976;-65
2023/03/11 21:42:21;;;;;;;;;;;;;;;;;;5017715;28;7446;-65
2023/03/11 21:44:47;;;;;;;;;;;;;;;;;;5017946;28;7136;-65
2023/03/11 21:47:12;;;;;;;;;;;;;;;;;;5017852;28;7154;-65
2023/03/11 21:49:38;;;;;;;;;;;;;;;;;;5017880;28;7119;-65
2023/03/11 21:52:27;;;;;;;;;;;;;;;;;;5017973;28;7137;-65
2023/03/11 21:54:52;;;;;;;;;;;;;;;;;;5077088;23;7237;-66
2023/03/11 22:00:21;;;;;;;;;;;;;;;;;;5037203;28;6919;-65
2023/03/11 22:03:19;;;;;;;;;;;;;;;;;;5036945;28;7156;-65
2023/03/11 22:05:45;;;;;;;;;;;;;;;;;;5037271;28;6842;-65
2023/03/11 22:08:13;;;;;;;;;;;;;;;;;;5037798;28;7209;-65
2023/03/11 22:10:40;;;;;;;;;;;;;;;;;;5037561;28;6953;-66
2023/03/11 22:13:23;;;;;;;;;;;;;;;;;;5036957;28;6973;-65
2023/03/11 22:15:49;;;;;;;;;;;;;;;;;;5037840;28;7123;-65